Time;durP1;ratioP1;P1;durP2;ratioP2;P2;SDS_P1;SDS_P2;PMS_P1;PMS_P2;Temp;Humidity;BMP_temperature;BMP_pressure;BME280_temperature;BME280_humidity;BME280_pressure;Samples;Min_cycle;Max_cycle;Signal;HPM_P1;HPM_P2
2023/05/17 00:01:25;;;;;;;5.60;3.43;;;;;;;14.63;100.00;148754.53;5052478;28;20215;-52
2023/05/17 00:03:55;;;;;;;3.60;3.37;;;;;;;14.49;100.00;148719.19;5052315;28;20288;-51
2023/05/17 00:06:23;;;;;;;6.83;3.63;;;;;;;14.42;100.00;148701.56;5052177;28;20292;-55
2023/05/17 00:08:50;;;;;;;6.97;3.80;;;;;;;14.34;100.00;148682.56;5052214;28;20287;-54
2023/05/17 00:11:17;;;;;;;6.53;3.83;;;;;;;14.28;100.00;148667.47;5052048;28;20196;-55
2023/05/17 00:13:44;;;;;;;5.50;3.63;;;;;;;14.21;100.00;148649.81;5052437;28;20228;-54
2023/05/17 00:16:11;;;;;;;6.83;3.70;;;;;;;14.11;100.00;148625.81;5052291;28;20197;-52
2023/05/17 00:18:38;;;;;;;4.10;3.70;;;;;;;14.06;100.00;148613.25;5051817;28;20207;-51
2023/05/17 00:21:04;;;;;;;9.73;4.47;;;;;;;14.05;100.00;148609.47;5051875;28;20204;-55
2023/05/17 00:23:33;;;;;;;4.80;3.70;;;;;;;14.02;100.00;148603.13;5051477;28;20308;-52
2023/05/17 00:26:00;;;;;;;5.57;3.93;;;;;;;14.04;100.00;148606.94;5051656;28;20199;-52
2023/05/17 00:28:27;;;;;;;7.23;3.90;;;;;;;13.97;100.00;148589.31;5052124;28;20197;-55
2023/05/17 00:30:54;;;;;;;9.67;4.07;;;;;;;13.94;100.00;148581.72;5051906;28;20200;-55
2023/05/17 00:33:21;;;;;;;6.70;3.70;;;;;;;13.97;100.00;148589.31;5052004;28;20199;-52
2023/05/17 00:35:47;;;;;;;4.43;3.73;;;;;;;13.95;100.00;148584.25;5051885;28;20207;-54
2023/05/17 00:38:14;;;;;;;4.63;4.03;;;;;;;13.97;100.00;148590.56;5051833;28;20201;-55
2023/05/17 00:40:43;;;;;;;7.13;4.17;;;;;;;13.93;100.00;148579.19;5051829;28;20201;-54
2023/05/17 00:43:10;;;;;;;6.40;4.27;;;;;;;13.90;100.00;148572.88;5051263;28;20653;-55
2023/05/17 00:45:37;;;;;;;9.60;4.50;;;;;;;13.81;100.00;148551.47;5051706;28;20702;-53
2023/05/17 00:48:04;;;;;;;6.57;4.27;;;;;;;13.75;100.00;148536.38;5051685;28;20193;-52
2023/05/17 00:50:31;;;;;;;7.33;4.47;;;;;;;13.74;100.00;148533.84;5051455;28;20197;-55
2023/05/17 00:52:59;;;;;;;5.70;4.90;;;;;;;13.75;100.00;148536.38;5051375;28;20193;-55
2023/05/17 00:55:26;;;;;;;5.27;4.77;;;;;;;13.74;100.00;148533.84;5051298;28;20197;-55
2023/05/17 00:57:55;;;;;;;6.60;5.07;;;;;;;13.68;100.00;148518.69;5051530;28;20268;-55
2023/05/17 01:00:22;;;;;;;6.00;5.53;;;;;;;13.71;100.00;148525.00;5051329;28;20207;-55
2023/05/17 01:02:49;;;;;;;6.70;4.73;;;;;;;13.70;100.00;148522.47;5051346;28;20224;-52
2023/05/17 01:05:17;;;;;;;6.17;4.70;;;;;;;13.69;100.00;148521.22;5051544;28;20704;-53
2023/05/17 01:07:43;;;;;;;5.50;4.40;;;;;;;13.65;100.00;148509.91;5051655;28;20577;-55
2023/05/17 01:10:11;;;;;;;5.07;4.70;;;;;;;13.59;100.00;148494.75;5051123;28;20283;-55
2023/05/17 01:12:50;;;;;;;5.23;4.80;;;;;;;13.63;100.00;148506.09;5051105;28;20203;-54
2023/05/17 01:15:24;;;;;;;9.33;5.43;;;;;;;13.67;100.00;148516.16;5051322;28;20250;-53
2023/05/17 01:18:00;;;;;;;6.37;5.30;;;;;;;13.73;100.00;148531.31;5050996;28;20207;-53
2023/05/17 01:20:31;;;;;;;5.80;5.23;;;;;;;13.76;100.00;148537.63;5050916;28;20207;-56
2023/05/17 01:23:21;;;;;;;9.17;5.87;;;;;;;13.72;100.00;148528.78;5050947;28;20608;-52
2023/05/17 01:25:57;;;;;;;7.60;5.47;;;;;;;13.74;100.00;148533.84;5050918;28;20197;-55
2023/05/17 01:28:27;;;;;;;6.73;5.63;;;;;;;13.66;100.00;148513.63;5050700;28;20196;-53
2023/05/17 01:30:55;;;;;;;7.20;5.57;;;;;;;13.63;100.00;148506.09;5050749;28;20192;-53
2023/05/17 01:33:23;;;;;;;6.77;5.70;;;;;;;13.68;100.00;148517.41;5050886;28;20197;-53
2023/05/17 01:35:50;;;;;;;6.30;5.50;;;;;;;13.64;100.00;148508.63;5050250;28;20196;-54
2023/05/17 01:38:17;;;;;;;7.67;5.97;;;;;;;13.74;100.00;148532.56;5050717;28;20196;-55
2023/05/17 01:40:52;;;;;;;6.60;5.90;;;;;;;13.74;100.00;148532.56;5050388;28;20203;-52
2023/05/17 01:43:25;;;;;;;7.03;5.80;;;;;;;13.82;100.00;148554.00;5050761;28;20307;-55
2023/05/17 01:46:06;;;;;;;6.27;5.67;;;;;;;13.77;100.00;148540.09;5050470;28;20211;-54
2023/05/17 01:48:39;;;;;;;6.23;5.63;;;;;;;13.76;100.00;148537.63;5050626;28;20751;-54
2023/05/17 01:51:11;;;;;;;6.70;6.10;;;;;;;13.80;100.00;148547.69;5050345;28;20276;-52
2023/05/17 01:53:42;;;;;;;8.50;6.07;;;;;;;13.74;100.00;148532.56;5049860;28;20667;-53
2023/05/17 01:56:15;;;;;;;13.30;5.37;;;;;;;13.71;100.00;148526.25;5050503;28;20203;-51
2023/05/17 01:58:46;;;;;;;6.50;5.90;;;;;;;13.73;100.00;148531.31;5050194;28;20236;-52
2023/05/17 02:01:17;;;;;;;8.57;5.70;;;;;;;13.75;100.00;148536.38;5050336;28;20236;-55
2023/05/17 02:03:44;;;;;;;10.43;6.07;;;;;;;13.78;100.00;148542.63;5050117;28;20303;-55
2023/05/17 02:06:11;;;;;;;9.00;6.33;;;;;;;13.75;100.00;148536.38;5050276;28;20204;-56
2023/05/17 02:08:38;;;;;;;7.93;6.00;;;;;;;13.72;100.00;148528.78;5050100;28;20247;-54
2023/05/17 02:11:05;;;;;;;8.20;5.83;;;;;;;13.78;100.00;148543.88;5050221;28;20201;-53
2023/05/17 02:13:32;;;;;;;10.27;6.53;;;;;;;13.87;100.00;148564.09;5050429;28;20518;-53
2023/05/17 02:16:00;;;;;;;6.97;6.27;;;;;;;13.79;100.00;148545.16;5050137;28;20197;-53
2023/05/17 02:18:29;;;;;;;8.90;6.33;;;;;;;13.56;100.00;148488.44;5049743;28;20346;-55
2023/05/17 02:20:56;;;;;;;9.10;5.93;;;;;;;13.60;100.00;148498.53;5049945;28;20201;-53
2023/05/17 02:23:23;;;;;;;11.63;6.80;;;;;;;13.56;100.00;148488.44;5050186;28;20604;-53
2023/05/17 02:25:50;;;;;;;12.57;7.67;;;;;;;13.53;100.00;148479.66;5049955;28;20207;-56
2023/05/17 02:28:17;;;;;;;7.90;7.10;;;;;;;13.52;100.00;148478.38;5050120;28;20350;-55
2023/05/17 02:30:44;;;;;;;12.83;7.57;;;;;;;13.47;100.00;148465.75;5049618;28;20211;-56
2023/05/17 02:33:11;;;;;;;12.10;6.57;;;;;;;13.43;100.00;148455.72;5050121;28;20623;-55
2023/05/17 02:35:40;;;;;;;8.97;6.57;;;;;;;13.43;100.00;148456.91;5049868;28;20283;-53
2023/05/17 02:38:07;;;;;;;10.20;7.30;;;;;;;13.39;100.00;148445.59;5049939;28;20192;-53
2023/05/17 02:40:33;;;;;;;14.67;8.07;;;;;;;13.40;100.00;148448.13;5049689;28;20192;-54
2023/05/17 02:43:00;;;;;;;14.03;7.17;;;;;;;13.41;100.00;148450.66;5049591;28;20227;-56
2023/05/17 02:45:27;;;;;;;11.67;8.00;;;;;;;13.43;100.00;148456.91;5049679;28;20688;-56
2023/05/17 02:47:54;;;;;;;8.67;7.20;;;;;;;13.53;100.00;148480.91;5049804;28;20206;-53
2023/05/17 02:50:21;;;;;;;10.93;7.60;;;;;;;13.58;100.00;148493.47;5049811;28;20223;-53
2023/05/17 02:52:49;;;;;;;10.43;7.57;;;;;;;13.65;100.00;148511.16;5049832;28;20201;-56
2023/05/17 02:55:16;;;;;;;8.93;7.23;;;;;;;13.64;100.00;148507.38;5049678;28;20205;-55
2023/05/17 02:57:43;;;;;;;8.80;7.27;;;;;;;13.69;100.00;148519.94;5049585;28;21013;-55
2023/05/17 03:00:11;;;;;;;16.10;7.37;;;;;;;13.70;100.00;148523.75;5049569;28;20591;-55
2023/05/17 03:02:38;;;;;;;10.10;7.07;;;;;;;13.74;100.00;148532.56;5049383;28;20274;-53
2023/05/17 03:05:05;;;;;;;7.57;6.70;;;;;;;13.79;100.00;148546.41;5050428;28;20200;-52
2023/05/17 03:07:32;;;;;;;10.60;7.53;;;;;;;13.78;100.00;148542.63;5053476;28;20199;-55
2023/05/17 03:10:00;;;;;;;10.33;7.60;;;;;;;13.86;100.00;148561.56;5052856;28;20591;-52
2023/05/17 03:12:27;;;;;;;12.27;7.47;;;;;;;13.86;100.00;148561.56;5050345;28;20997;-56
2023/05/17 03:14:54;;;;;;;14.13;7.47;;;;;;;13.93;100.00;148579.19;5053545;28;20203;-53
2023/05/17 03:17:21;;;;;;;7.63;6.67;;;;;;;13.96;100.00;148586.78;5053264;28;20199;-54
2023/05/17 03:19:47;;;;;;;13.07;7.90;;;;;;;13.82;100.00;148552.72;5053171;28;20201;-52
2023/05/17 03:22:14;;;;;;;8.20;7.43;;;;;;;13.81;100.00;148551.47;5052805;28;20204;-52
2023/05/17 03:24:41;;;;;;;11.30;8.10;;;;;;;13.86;100.00;148562.81;5052662;28;20235;-55
2023/05/17 03:27:09;;;;;;;9.57;7.57;;;;;;;13.89;100.00;148570.34;5051834;28;20211;-55
2023/05/17 03:29:36;;;;;;;8.93;7.97;;;;;;;13.94;100.00;148582.97;5044991;28;20209;-55
2023/05/17 03:32:03;;;;;;;15.33;11.40;;;;;;;13.92;100.00;148577.94;5051763;28;20201;-53
2023/05/17 03:34:30;;;;;;;20.00;11.70;;;;;;;13.98;100.00;148593.09;5052188;28;20216;-55
2023/05/17 03:36:57;;;;;;;15.50;8.80;;;;;;;14.01;100.00;148599.34;5049007;28;20196;-56
2023/05/17 03:39:24;;;;;;;19.83;10.73;;;;;;;14.07;100.00;148614.50;5048836;28;20193;-56
2023/05/17 03:41:51;;;;;;;15.60;9.90;;;;;;;14.05;100.00;148610.72;5049585;28;20207;-56
2023/05/17 03:44:19;;;;;;;19.23;10.23;;;;;;;14.06;100.00;148611.97;5051785;28;20254;-52
2023/05/17 03:46:46;;;;;;;16.27;10.27;;;;;;;14.13;100.00;148629.63;5052249;28;20706;-52
2023/05/17 03:49:13;;;;;;;18.23;10.63;;;;;;;14.22;100.00;148651.09;5052167;28;20197;-52
2023/05/17 03:51:40;;;;;;;17.97;11.30;;;;;;;14.20;100.00;148647.31;5052351;28;20200;-52
2023/05/17 03:54:07;;;;;;;23.17;10.20;;;;;;;14.19;100.00;148644.78;5051942;28;20284;-55
2023/05/17 03:56:34;;;;;;;13.83;8.47;;;;;;;14.18;100.00;148642.25;5052490;28;20200;-52
2023/05/17 03:59:00;;;;;;;13.37;8.70;;;;;;;14.22;100.00;148651.09;5052193;28;20232;-55
2023/05/17 04:01:29;;;;;;;13.23;8.83;;;;;;;14.27;100.00;148664.94;5052238;28;20192;-56
2023/05/17 04:03:56;;;;;;;15.67;8.50;;;;;;;14.31;100.00;148675.03;5051883;28;20215;-55
2023/05/17 04:06:23;;;;;;;11.47;8.60;;;;;;;14.42;100.00;148702.84;5051627;28;20215;-51
2023/05/17 04:08:50;;;;;;;11.87;8.57;;;;;;;14.50;100.00;148723.00;5046713;28;20311;-53
2023/05/17 04:11:22;;;;;;;12.87;8.80;;;;;;;14.55;100.00;148733.09;5051729;28;20282;-55
2023/05/17 04:13:49;;;;;;;12.43;9.07;;;;;;;14.62;100.00;148752.00;5051893;28;20667;-55
2023/05/17 04:16:16;;;;;;;14.67;8.50;;;;;;;14.70;100.00;148770.91;5051049;28;20314;-56
2023/05/17 04:18:44;;;;;;;12.03;8.63;;;;;;;14.67;100.00;148763.38;5051258;28;20236;-52
2023/05/17 04:21:12;;;;;;;17.23;9.57;;;;;;;14.65;100.00;148759.59;5050801;28;20225;-54
2023/05/17 04:23:39;;;;;;;11.37;8.50;;;;;;;14.72;100.00;148775.97;5051623;28;20236;-54
2023/05/17 04:26:06;;;;;;;16.60;8.97;;;;;;;14.70;100.00;148770.91;5051606;28;20263;-52
2023/05/17 04:28:33;;;;;;;10.47;8.70;;;;;;;14.76;100.00;148786.06;5051686;28;20224;-53
2023/05/17 04:31:00;;;;;;;16.40;9.67;;;;;;;14.85;100.00;148808.78;5060184;28;20281;-54
2023/05/17 04:33:27;;;;;;;13.47;9.87;;;;;;;15.04;100.00;148856.69;5071619;28;20203;-52
2023/05/17 04:35:56;;;;;;;17.47;9.67;;;;;;;15.08;100.00;148866.81;5070824;28;20200;-51
2023/05/17 04:38:23;;;;;;;13.00;9.87;;;;;;;15.18;100.00;148892.03;5071871;28;20208;-55
2023/05/17 04:40:50;;;;;;;10.97;9.07;;;;;;;15.18;100.00;148890.78;5071868;28;20578;-53
2023/05/17 04:43:17;;;;;;;17.47;9.50;;;;;;;15.15;100.00;148884.47;5071776;28;20670;-51
2023/05/17 04:45:44;;;;;;;15.27;9.17;;;;;;;15.15;100.00;148883.19;5071649;28;20295;-53
2023/05/17 04:48:11;;;;;;;14.13;9.73;;;;;;;15.25;100.00;148908.44;5071533;28;20196;-52
2023/05/17 04:50:38;;;;;;;19.37;10.80;;;;;;;15.35;100.00;148933.66;5071448;28;20676;-52
2023/05/17 04:53:07;;;;;;;22.53;12.10;;;;;;;15.35;100.00;148933.66;5071733;28;20620;-55
2023/05/17 04:55:34;;;;;;;17.17;12.07;;;;;;;15.34;100.00;148931.19;5071410;28;20208;-54
2023/05/17 04:58:01;;;;;;;21.30;12.63;;;;;;;15.41;100.00;148947.56;5071295;28;20236;-51
2023/05/17 05:00:28;;;;;;;19.67;13.37;;;;;;;15.43;100.00;148952.63;5071294;28;20200;-52
2023/05/17 05:02:55;;;;;;;19.90;13.20;;;;;;;15.54;100.00;148980.38;5071118;28;20200;-52
2023/05/17 05:05:23;;;;;;;25.07;13.40;;;;;;;15.65;100.00;149008.19;5071377;28;20199;-53
2023/05/17 05:07:50;;;;;;;23.67;12.70;;;;;;;15.75;100.00;149033.44;5071482;28;20284;-52
2023/05/17 05:10:19;;;;;;;24.73;12.93;;;;;;;15.87;100.00;149063.75;5071289;28;20196;-55
2023/05/17 05:12:46;;;;;;;24.20;12.87;;;;;;;15.89;100.00;149068.81;5071079;28;20202;-55
2023/05/17 05:15:13;;;;;;;26.40;13.67;;;;;;;15.86;100.00;149059.94;5071157;28;20192;-55
2023/05/17 05:17:40;;;;;;;28.63;13.50;;;;;;;15.79;100.00;149043.56;5055210;28;20220;-52
2023/05/17 05:20:08;;;;;;;23.93;13.33;;;;;;;15.85;100.00;149057.41;5050624;28;20688;-55
2023/05/17 05:22:35;;;;;;;17.87;12.70;;;;;;;15.82;100.00;149049.84;5050089;28;20192;-56
2023/05/17 05:25:02;;;;;;;17.63;12.60;;;;;;;15.82;100.00;149051.09;5050912;28;20227;-55
2023/05/17 05:27:30;;;;;;;22.37;11.93;;;;;;;15.86;100.00;149059.94;5050922;28;20279;-55
2023/05/17 05:29:57;;;;;;;19.07;12.23;;;;;;;15.87;100.00;149063.75;5050662;28;20207;-56
2023/05/17 05:32:24;;;;;;;19.13;11.90;;;;;;;16.07;100.00;149112.97;5050802;28;20200;-55
2023/05/17 05:34:51;;;;;;;16.43;12.23;;;;;;;16.07;100.00;149112.97;5050805;28;20193;-55
2023/05/17 05:37:18;;;;;;;21.73;12.63;;;;;;;16.19;100.00;149142.03;5050767;28;20232;-56
2023/05/17 05:39:45;;;;;;;21.27;12.83;;;;;;;16.27;100.00;149163.47;5050718;28;20197;-56
2023/05/17 05:42:12;;;;;;;20.93;12.63;;;;;;;16.37;100.00;149187.47;5050626;28;20291;-55
2023/05/17 05:44:41;;;;;;;19.43;12.77;;;;;;;16.41;100.00;149197.59;5050082;28;20221;-52
2023/05/17 05:47:07;;;;;;;23.67;13.80;;;;;;;16.46;100.00;149210.25;5050806;28;20707;-53
2023/05/17 05:49:34;;;;;;;19.37;13.40;;;;;;;16.55;100.00;149232.97;5050907;28;20200;-53
2023/05/17 05:52:01;;;;;;;23.07;13.63;;;;;;;16.56;100.00;149235.50;5050604;28;20592;-54
2023/05/17 05:54:28;;;;;;;19.53;13.00;;;;;;;16.53;100.00;149227.91;5050441;28;20196;-53
2023/05/17 05:56:55;;;;;;;19.57;13.37;;;;;;;16.63;100.00;149253.22;5050328;28;20251;-51
2023/05/17 05:59:22;;;;;;;24.67;13.77;;;;;;;16.67;100.00;149263.34;5050241;28;20591;-52
2023/05/17 06:01:50;;;;;;;19.27;13.30;;;;;;;16.68;100.00;149264.59;5050446;28;20196;-53
2023/05/17 06:04:17;;;;;;;20.93;12.93;;;;;;;16.63;100.00;149253.22;5032256;28;20704;-51
2023/05/17 06:06:44;;;;;;;21.67;12.73;;;;;;;16.66;100.00;149260.81;5030351;28;20243;-56
2023/05/17 06:09:12;;;;;;;23.33;14.50;;;;;;;16.73;100.00;149277.22;5037560;28;20224;-56
2023/05/17 06:11:38;;;;;;;20.97;13.73;;;;;;;16.83;100.00;149302.47;5050415;28;20565;-58
2023/05/17 06:14:05;;;;;;;22.70;12.17;;;;;;;17.02;100.00;149350.50;5050327;28;20216;-58
2023/05/17 06:16:32;;;;;;;18.87;13.70;;;;;;;17.24;100.00;149403.56;5050326;28;20592;-58
2023/05/17 06:19:01;;;;;;;25.30;12.30;;;;;;;17.27;100.00;149412.38;5050339;28;20291;-58
2023/05/17 06:21:27;;;;;;;27.20;12.23;;;;;;;17.41;100.00;149447.78;5050202;28;20192;-57
2023/05/17 06:23:54;;;;;;;13.27;11.23;;;;;;;17.52;100.00;149474.34;5050045;28;20220;-55
2023/05/17 06:26:21;;;;;;;16.45;10.98;;;;;;;17.47;100.00;149461.72;5050072;28;20226;-52
2023/05/17 06:28:48;;;;;;;15.20;11.20;;;;;;;17.54;100.00;149479.41;5049945;28;20200;-52
2023/05/17 06:31:15;;;;;;;14.33;10.77;;;;;;;17.70;100.00;149519.91;5050245;28;20714;-53
2023/05/17 06:33:42;;;;;;;17.77;11.23;;;;;;;17.90;100.00;149567.94;5050039;28;20219;-56
2023/05/17 06:36:10;;;;;;;13.75;10.95;;;;;;;18.11;100.00;149621.03;5050133;28;20203;-56
2023/05/17 06:38:37;;;;;;;15.60;11.27;;;;;;;18.34;100.00;149677.94;5050082;28;20196;-56
2023/05/17 06:41:04;;;;;;;14.82;10.98;;;;;;;18.46;100.00;149709.56;5052294;28;20196;-57
2023/05/17 06:43:31;;;;;;;15.48;10.65;;;;;;;18.51;100.00;149722.19;5054200;28;20594;-54
2023/05/17 06:45:58;;;;;;;13.88;10.55;;;;;;;18.57;100.00;149736.13;5054196;28;20196;-53
2023/05/17 06:48:25;;;;;;;22.33;12.23;;;;;;;18.46;100.00;149708.31;5054227;28;20196;-53
2023/05/17 06:50:52;;;;;;;15.02;13.45;;;;;;;18.05;100.00;149605.88;5054005;28;20192;-55
2023/05/17 06:53:20;;;;;;;18.63;14.63;;;;;;;18.00;100.00;149593.22;5053973;28;20592;-55
2023/05/17 06:55:47;;;;;;;17.33;15.40;;;;;;;17.90;100.00;149569.22;5053746;28;20199;-56
2023/05/17 06:58:14;;;;;;;20.42;16.95;;;;;;;17.94;100.00;149578.06;5053640;28;20236;-58
2023/05/17 07:00:41;;;;;;;22.92;16.55;;;;;;;17.72;100.00;149524.94;5053925;28;20676;-56
2023/05/17 07:03:08;;;;;;;23.48;17.50;;;;;;;17.54;100.00;149479.41;5053550;28;20301;-55
2023/05/17 07:05:35;;;;;;;23.17;16.70;;;;;;;17.44;100.00;149454.13;5053356;28;20310;-54
2023/05/17 07:08:02;;;;;;;21.70;16.33;;;;;;;17.20;100.00;149394.72;5053230;28;20258;-55
2023/05/17 07:10:30;;;;;;;18.70;14.43;;;;;;;16.93;100.00;149326.50;5053347;28;20197;-53
2023/05/17 07:12:57;;;;;;;25.00;16.17;;;;;;;16.95;100.00;149332.78;5053366;28;20207;-55
2023/05/17 07:15:24;;;;;;;20.00;13.30;;;;;;;17.02;100.00;149350.50;5053085;28;20584;-52
2023/05/17 07:17:51;;;;;;;24.77;14.00;;;;;;;17.08;100.00;149364.38;5053275;28;20201;-52
2023/05/17 07:20:18;;;;;;;21.50;14.45;;;;;;;16.96;100.00;149335.31;5053289;28;20196;-52
2023/05/17 07:22:47;;;;;;;24.57;13.97;;;;;;;16.85;100.00;149306.25;5053156;28;20697;-55
2023/05/17 07:25:14;;;;;;;22.03;14.43;;;;;;;16.96;100.00;149334.06;5053268;28;20220;-51
2023/05/17 07:27:42;;;;;;;19.83;15.27;;;;;;;16.81;100.00;149296.19;5053400;28;20204;-56
2023/05/17 07:30:10;;;;;;;23.60;16.33;;;;;;;16.72;100.00;149273.41;5053189;28;20200;-52
2023/05/17 07:32:37;;;;;;;20.67;14.33;;;;;;;16.70;100.00;149270.88;5053017;28;20201;-56
2023/05/17 07:35:04;;;;;;;20.90;15.73;;;;;;;16.84;100.00;149303.72;5052911;28;20667;-52
2023/05/17 07:37:31;;;;;;;20.47;15.40;;;;;;;16.85;100.00;149306.25;5053059;28;20201;-52
2023/05/17 07:39:59;;;;;;;18.17;14.60;;;;;;;16.87;100.00;149312.59;5053001;28;20184;-52
2023/05/17 07:42:26;;;;;;;27.70;16.73;;;;;;;16.87;100.00;149311.31;5059462;28;20207;-51
2023/05/17 07:44:54;;;;;;;24.67;14.98;;;;;;;16.89;100.00;149317.66;5069659;28;20250;-52
2023/05/17 07:47:21;;;;;;;28.70;18.17;;;;;;;16.92;100.00;149323.97;5072904;28;20208;-52
2023/05/17 07:49:48;;;;;;;26.02;18.75;;;;;;;16.95;100.00;149332.78;5072559;28;20582;-55
2023/05/17 07:52:15;;;;;;;36.47;17.80;;;;;;;16.88;100.00;149313.84;5072967;28;20202;-55
2023/05/17 07:54:42;;;;;;;25.97;18.57;;;;;;;16.73;100.00;149275.94;5072984;28;20663;-52
2023/05/17 07:57:09;;;;;;;35.77;20.33;;;;;;;16.62;100.00;149249.41;5066187;28;20505;-51
2023/05/17 07:59:35;;;;;;;28.13;18.83;;;;;;;16.61;100.00;149246.84;5052448;28;20207;-56
2023/05/17 08:02:04;;;;;;;29.60;19.47;;;;;;;16.50;100.00;149220.31;5051048;28;20200;-52
2023/05/17 08:04:31;;;;;;;28.63;20.43;;;;;;;16.27;100.00;149162.22;5050880;28;20224;-56
2023/05/17 08:06:59;;;;;;;32.70;20.23;;;;;;;16.11;100.00;149121.81;5052231;28;20197;-56
2023/05/17 08:09:26;;;;;;;36.57;21.43;;;;;;;15.98;100.00;149090.25;5052502;28;20201;-52
2023/05/17 08:11:53;;;;;;;38.77;21.17;;;;;;;15.97;100.00;149089.00;5052865;28;20565;-51
2023/05/17 08:14:23;;;;;;;30.07;20.93;;;;;;;16.10;100.00;149119.31;5052346;28;20283;-56
2023/05/17 08:16:50;;;;;;;32.10;22.23;;;;;;;16.15;100.00;149131.91;5052236;28;20193;-52
2023/05/17 08:19:19;;;;;;;32.57;20.33;;;;;;;16.21;100.00;149147.06;5052479;28;20204;-56
2023/05/17 08:21:46;;;;;;;35.17;19.97;;;;;;;16.23;100.00;149152.13;5052346;28;20207;-53
2023/05/17 08:24:13;;;;;;;38.43;22.33;;;;;;;16.20;100.00;149145.81;5052335;28;20232;-51
2023/05/17 08:26:41;;;;;;;33.53;20.93;;;;;;;16.29;100.00;149168.53;5052250;28;20288;-52
2023/05/17 08:29:07;;;;;;;36.93;22.00;;;;;;;16.28;100.00;149166.00;5049185;28;20242;-51
2023/05/17 08:31:34;;;;;;;39.67;22.60;;;;;;;16.24;100.00;149155.94;5051404;28;20230;-56
2023/05/17 08:34:02;;;;;;;33.23;21.20;;;;;;;16.27;100.00;149162.22;5051541;28;20232;-56
2023/05/17 08:36:30;;;;;;;37.50;22.73;;;;;;;16.25;100.00;149157.19;5051602;28;20641;-51
2023/05/17 08:38:57;;;;;;;36.30;22.70;;;;;;;16.20;100.00;149144.56;5051274;28;20323;-52
2023/05/17 08:41:24;;;;;;;35.30;21.43;;;;;;;16.24;100.00;149155.94;5051185;28;20251;-51
2023/05/17 08:43:51;;;;;;;36.07;21.70;;;;;;;16.22;100.00;149150.88;5051440;28;20703;-51
2023/05/17 08:46:20;;;;;;;35.97;22.60;;;;;;;16.17;100.00;149138.22;5051009;28;20227;-51
2023/05/17 08:48:50;;;;;;;35.93;23.37;;;;;;;16.32;100.00;149174.88;5051953;28;20254;-51
2023/05/17 08:51:19;;;;;;;38.47;24.23;;;;;;;16.27;100.00;149162.22;5051981;28;20283;-51
2023/05/17 08:53:49;;;;;;;46.57;24.27;;;;;;;16.19;100.00;149143.28;5051772;28;20204;-52
2023/05/17 08:56:18;;;;;;;44.00;24.73;;;;;;;16.03;100.00;149101.63;5051439;28;20193;-51
2023/05/17 08:58:48;;;;;;;39.83;24.47;;;;;;;15.90;100.00;149071.34;5051267;28;20280;-52
2023/05/17 09:01:17;;;;;;;42.13;25.07;;;;;;;15.87;100.00;149063.75;5050628;28;20200;-51
2023/05/17 09:03:48;;;;;;;49.23;26.27;;;;;;;15.84;100.00;149054.91;5050884;28;20200;-50
2023/05/17 09:06:17;;;;;;;44.30;27.10;;;;;;;15.83;100.00;149053.63;5051345;28;20244;-50
2023/05/17 09:08:45;;;;;;;45.47;28.47;;;;;;;15.74;100.00;149030.91;5051248;28;20196;-51
2023/05/17 09:11:23;;;;;;;48.90;27.23;;;;;;;15.64;100.00;149005.69;5051111;28;20586;-57
2023/05/17 09:13:50;;;;;;;46.67;29.30;;;;;;;15.50;100.00;148970.28;5051629;28;20593;-52
2023/05/17 09:16:19;;;;;;;47.47;27.83;;;;;;;15.41;100.00;148947.56;5051553;28;20254;-52
2023/05/17 09:18:54;;;;;;;51.83;28.87;;;;;;;15.37;100.00;148938.72;5051280;28;20200;-52
2023/05/17 09:21:21;;;;;;;43.87;28.97;;;;;;;15.40;100.00;148946.31;5051183;28;20196;-51
2023/05/17 09:23:48;;;;;;;49.37;29.23;;;;;;;15.10;100.00;148871.88;5051468;28;20197;-52
2023/05/17 09:26:18;;;;;;;47.50;28.13;;;;;;;15.12;100.00;148875.66;5051288;28;20780;-52
2023/05/17 09:28:45;;;;;;;44.27;27.47;;;;;;;15.14;100.00;148881.94;5051207;28;20201;-56
2023/05/17 09:31:15;;;;;;;44.83;27.93;;;;;;;15.07;100.00;148863.03;5050927;28;20203;-51
2023/05/17 09:33:46;;;;;;;48.10;27.20;;;;;;;15.01;100.00;148847.91;5050959;28;20692;-51
2023/05/17 09:36:18;;;;;;;47.63;31.00;;;;;;;-70.64;100.00;128420.63;5050040;28;20208;-51
2023/05/17 09:38:52;;;;;;;38.13;25.40;;;;;;;-75.07;100.00;127421.31;5050863;28;20207;-51
2023/05/17 09:41:22;;;;;;;32.37;23.43;;;;;;;-75.55;100.00;127313.19;5051155;28;20673;-51
2023/05/17 09:43:49;;;;;;;34.40;23.33;;;;;;;-75.96;100.00;127222.22;5050768;28;20196;-51
2023/05/17 09:46:16;;;;;;;32.40;22.97;;;;;;;-75.83;100.00;127250.66;5050743;28;20221;-54
2023/05/17 09:48:45;;;;;;;36.37;24.30;;;;;;;-75.81;100.00;127256.34;5050585;28;20196;-55
2023/05/17 09:51:12;;;;;;;37.63;23.13;;;;;;;-75.63;100.00;127294.97;5050746;28;20208;-51
2023/05/17 09:53:40;;;;;;;35.73;25.50;;;;;;;-75.55;100.00;127314.31;5051114;28;20605;-55
2023/05/17 09:56:08;;;;;;;44.93;26.43;;;;;;;-75.89;100.00;127237.00;5050510;28;20200;-54
2023/05/17 09:58:37;;;;;;;36.53;25.87;;;;;;;-75.69;100.00;127282.47;5050251;28;20220;-54
2023/05/17 10:01:07;;;;;;;37.63;23.70;;;;;;;-75.97;100.00;127218.81;5050350;28;20192;-51
2023/05/17 10:03:35;;;;;;;28.47;20.77;;;;;;;-75.26;100.00;127378.06;5050573;28;20193;-55
2023/05/17 10:06:05;;;;;;;28.90;20.23;;;;;;;-74.96;100.00;127446.38;5050327;28;20621;-55
2023/05/17 10:08:33;;;;;;;26.20;19.17;;;;;;;-75.10;100.00;127414.47;5050483;28;20231;-51
2023/05/17 10:11:04;;;;;;;31.27;19.33;;;;;;;-75.44;100.00;127338.22;5050436;28;20205;-51
2023/05/17 10:13:34;;;;;;;27.60;19.03;;;;;;;-75.43;100.00;127340.50;5050189;28;20565;-55
2023/05/17 10:16:03;;;;;;;29.90;19.00;;;;;;;-75.75;100.00;127268.84;5049325;28;20200;-50
2023/05/17 10:18:31;;;;;;;23.20;18.47;;;;;;;-76.31;100.00;127143.78;5050153;28;20203;-51
2023/05/17 10:21:00;;;;;;;24.53;17.87;;;;;;;-76.43;100.00;127116.53;5050273;28;20212;-50
2023/05/17 10:23:29;;;;;;;21.57;17.93;;;;;;;-76.80;100.00;127032.47;5050365;28;20250;-49
2023/05/17 10:25:56;;;;;;;26.33;17.80;;;;;;;-77.04;100.00;126979.13;5050072;28;20227;-54
2023/05/17 10:28:24;;;;;;;20.03;16.93;;;;;;;-77.06;100.00;126974.59;5049969;28;20196;-55
2023/05/17 10:30:53;;;;;;;23.60;16.63;;;;;;;-77.39;100.00;126900.81;5050022;28;20200;-53
2023/05/17 10:33:21;;;;;;;25.30;16.43;;;;;;;-78.35;100.00;126685.44;5049998;28;20284;-49
2023/05/17 10:35:50;;;;;;;23.40;16.67;;;;;;;-79.64;100.00;126396.84;5049990;28;20584;-51
2023/05/17 10:38:18;;;;;;;29.73;18.87;;;;;;;-79.25;100.00;126483.91;5049903;28;20196;-50
2023/05/17 10:40:47;;;;;;;29.47;21.50;;;;;;;-79.85;100.00;126350.47;5049721;28;20718;-54
2023/05/17 10:43:16;;;;;;;31.53;19.17;;;;;;;-80.11;100.00;126293.97;5049820;28;20196;-55
2023/05/17 10:45:43;;;;;;;23.57;18.87;;;;;;;-80.21;100.00;126271.34;5049636;28;20240;-51
2023/05/17 10:48:10;;;;;;;25.07;19.43;;;;;;;-80.27;100.00;126257.78;5049781;28;20279;-51
2023/05/17 10:50:40;;;;;;;28.63;19.10;;;;;;;-81.04;100.00;126085.06;5056147;28;20232;-55
2023/05/17 10:53:10;;;;;;;29.93;19.00;;;;;;;-81.41;100.00;126002.69;5069618;28;20228;-54
2023/05/17 10:55:40;;;;;;;24.73;17.93;;;;;;;-82.24;100.00;125817.91;5069883;28;20560;-56
2023/05/17 10:58:26;;;;;;;28.57;18.50;;;;;;;-81.61;100.00;125957.59;5069523;28;20242;-56
2023/05/17 11:00:54;;;;;;;32.87;19.73;;;;;;;-144.30;100.00;85611.13;5069221;28;20196;-55
2023/05/17 11:03:23;;;;;;;31.30;20.13;;;;;;;-144.30;100.00;85599.22;5068572;28;20688;-52
2023/05/17 11:06:13;;;;;;;23.07;18.90;;;;;;;-144.30;100.00;85615.13;5069453;28;20227;-55
2023/05/17 11:08:46;;;;;;;33.47;19.93;;;;;;;-144.30;100.00;85607.16;5069327;28;20202;-56